This is the latest recevied weather packets stored in our database for station/object KG5VSR. If no packets are shown the sender has not sent any weather packets the latest 1 day(s).
| Time | Temp. | Humidity | Pressure | Rain* | Wind** | Luminosity | Snow |
|---|---|---|---|---|---|---|---|
| 1778059331 | 15° C | 80% | 1010.8 hPa | 0 mm | 0.45 m/s, 357° | 0 W/m² | - |
| 1778057531 | 15.56° C | 81% | 1010.4 hPa | 0 mm | 0.89 m/s, 339° | 0 W/m² | - |
| 1778055728 | 16.11° C | 81% | 1009.9 hPa | 0 mm | 0.45 m/s, 321° | 0 W/m² | - |
| 1778053923 | 16.11° C | 81% | 1010.1 hPa | 0 mm | 0.89 m/s, 336° | 0 W/m² | - |
| 1778052119 | 16.11° C | 81% | 1010.2 hPa | 0 mm | 0 m/s | 0 W/m² | - |
| 1778050314 | 16.67° C | 81% | 1010 hPa | 0 mm | 0 m/s | 0 W/m² | - |
| 1778048514 | 16.67° C | 82% | 1010.1 hPa | 0 mm | 1.34 m/s, 333° | 0 W/m² | - |
| 1778046714 | 17.22° C | 82% | 1010 hPa | 0 mm | 0.89 m/s, 106° | 0 W/m² | - |
| 1778044911 | 17.78° C | 81% | 1009.9 hPa | 0 mm | 0.45 m/s, 326° | 0 W/m² | - |
| 1778043110 | 18.89° C | 82% | 1009.9 hPa | 0 mm | 0.45 m/s, 308° | 0 W/m² | - |
| 1778041308 | 20° C | 81% | 1009.5 hPa | 0 mm | 1.34 m/s, 333° | 0 W/m² | - |
| 1778039509 | 21.11° C | 81% | 1009 hPa | 0 mm | 0.89 m/s, 333° | 0 W/m² | - |
| 1778037708 | 21.67° C | 81% | 1008.7 hPa | 0 mm | 1.34 m/s, 346° | 0 W/m² | - |
| 1778035908 | 22.22° C | 81% | 1007.8 hPa | 0 mm | 0 m/s | 0 W/m² | - |
| 1778034107 | 20° C | 95% | 1006.9 hPa | 0 mm | 0 m/s | 0 W/m² | - |
| 1778032303 | 20° C | 98% | 1006.5 hPa | 0 mm | 0 m/s | 0 W/m² | - |
| 1778030501 | 21.11° C | 99% | 1006.4 hPa | 0 mm | 0 m/s | 0 W/m² | - |
| 1778028696 | 24.44° C | 99% | 1005.3 hPa | 0 mm | 0 m/s | 3 W/m² | - |
| 1778026891 | 23.89° C | 98% | 1005.4 hPa | 1.78 mm | 0 m/s | 16 W/m² | - |
| 1778025091 | 28.89° C | 76% | 1004.5 hPa | 0 mm | 0.45 m/s, 310° | 5 W/m² | - |
| 1778023291 | 30° C | 73% | 1004.3 hPa | 0 mm | 1.34 m/s, 189° | 73 W/m² | - |
| 1778021491 | 31.11° C | 69% | 1003.9 hPa | 0 mm | 1.79 m/s, 204° | 96 W/m² | - |
| 1778019688 | 31.67° C | 66% | 1003.7 hPa | 0 mm | 1.34 m/s, 151° | 437 W/m² | - |
| 1778017885 | 32.22° C | 65% | 1004 hPa | 0 mm | 1.34 m/s, 186° | 518 W/m² | - |
| 1778016084 | 32.78° C | 62% | 1004.2 hPa | 0 mm | 1.34 m/s, 163° | 187 W/m² | - |
* Rain latest hour (hover to see other rain measurements)
** Current wind speed in m/s (hover to see current wind gust speed)